createdAt,value
2022-12-13T00:04:29.845Z,81.77
2022-12-13T00:09:54.172Z,81.94
2022-12-13T00:15:19.767Z,81.66
2022-12-13T00:21:00.977Z,81.83
2022-12-13T00:26:42.735Z,81.68
2022-12-13T00:32:06.665Z,81.48
2022-12-13T00:37:30.437Z,81.79
2022-12-13T00:42:54.391Z,81.74
2022-12-13T00:48:35.716Z,81.82
2022-12-13T00:54:16.771Z,81.76
2022-12-13T00:59:58.208Z,81.81
2022-12-13T01:06:13.803Z,81.80
2022-12-13T01:11:41.287Z,81.80
2022-12-13T01:17:05.187Z,81.68
2022-12-13T01:22:29.117Z,81.97
2022-12-13T01:27:52.647Z,82.03
2022-12-13T01:33:34.094Z,82.20
2022-12-13T01:39:18.558Z,82.64
2022-12-13T01:45:03.951Z,82.25
2022-12-13T01:50:46.361Z,82.14
2022-12-13T01:56:10.999Z,82.15
2022-12-13T02:01:34.580Z,82.46
2022-12-13T02:06:58.313Z,82.49
2022-12-13T02:12:39.939Z,82.60
2022-12-13T02:18:23.657Z,83.00
2022-12-13T02:24:08.950Z,82.79
2022-12-13T02:30:08.974Z,82.79
2022-12-13T02:36:02.103Z,83.25
2022-12-13T02:41:44.341Z,83.31
2022-12-13T02:47:22.191Z,82.94
2022-12-13T02:52:46.904Z,82.82
2022-12-13T02:58:13.831Z,82.47
2022-12-13T03:03:43.634Z,82.33
2022-12-13T03:09:36.568Z,81.96
2022-12-13T03:15:18.620Z,80.95
2022-12-13T03:21:01.513Z,80.30
2022-12-13T03:26:42.788Z,80.26
2022-12-13T03:32:07.587Z,80.38
2022-12-13T03:37:31.309Z,80.69
2022-12-13T03:42:54.927Z,81.03
2022-12-13T03:48:36.559Z,81.45
2022-12-13T03:54:18.992Z,81.71
2022-12-13T04:00:00.132Z,81.71
2022-12-13T04:05:24.233Z,81.93
2022-12-13T04:11:26.158Z,82.30
2022-12-13T04:17:19.197Z,82.36
2022-12-13T04:23:01.330Z,82.36
2022-12-13T04:28:54.701Z,82.76
2022-12-13T04:34:18.735Z,82.57
2022-12-13T04:40:00.880Z,82.71
2022-12-13T04:45:24.962Z,82.93
2022-12-13T04:51:06.260Z,82.67
2022-12-13T04:56:48.175Z,82.80
2022-12-13T05:02:12.486Z,82.58
2022-12-13T05:07:35.940Z,82.89
2022-12-13T05:13:06.865Z,82.93
2022-12-13T05:18:30.709Z,82.76
2022-12-13T05:24:11.980Z,83.02
2022-12-13T05:30:02.807Z,82.82
2022-12-13T05:35:45.775Z,83.06
2022-12-13T05:41:09.515Z,83.06
2022-12-13T05:46:38.324Z,83.01
2022-12-13T05:52:04.796Z,82.89
2022-12-13T05:57:28.817Z,82.77
2022-12-13T06:02:53.465Z,82.76
2022-12-13T06:08:24.897Z,82.79
2022-12-13T06:14:06.954Z,82.79
2022-12-13T06:20:22.982Z,82.92
2022-12-13T06:26:06.673Z,82.67
2022-12-13T06:31:47.994Z,82.49
2022-12-13T06:37:13.322Z,82.23
2022-12-13T06:42:37.237Z,82.02
2022-12-13T06:48:00.904Z,81.78
2022-12-13T06:53:42.586Z,81.95
2022-12-13T06:59:23.629Z,81.92
2022-12-13T07:05:04.392Z,81.87
2022-12-13T07:10:47.809Z,81.84
2022-12-13T07:16:16.501Z,82.17
2022-12-13T07:21:42.372Z,82.01
2022-12-13T07:27:06.556Z,82.12
2022-12-13T07:32:30.566Z,81.90
2022-12-13T07:38:11.932Z,81.95
2022-12-13T07:43:55.002Z,81.72
2022-12-13T07:49:20.396Z,81.50
2022-12-13T07:55:02.746Z,81.60
2022-12-13T08:00:26.966Z,81.38
2022-12-13T08:06:09.243Z,80.87
2022-12-13T08:11:50.582Z,80.78
2022-12-13T08:17:14.791Z,80.52
2022-12-13T08:22:39.227Z,80.26
2022-12-13T08:28:03.209Z,80.19
2022-12-13T08:33:47.216Z,79.66
2022-12-13T08:39:28.653Z,79.61
2022-12-13T08:45:10.344Z,79.44
2022-12-13T08:50:51.596Z,79.19
2022-12-13T08:56:15.937Z,78.86
2022-12-13T09:01:39.487Z,78.64
2022-12-13T09:07:03.921Z,79.16
2022-12-13T09:12:45.346Z,78.49
2022-12-13T09:18:36.051Z,78.74
2022-12-13T09:24:24.088Z,78.92
2022-12-13T09:30:08.391Z,78.79
2022-12-13T09:35:49.611Z,78.43
2022-12-13T09:41:52.782Z,78.38
2022-12-13T09:47:35.196Z,78.51
2022-12-13T09:53:21.854Z,77.67
2022-12-13T09:59:04.230Z,77.99
2022-12-13T10:04:30.064Z,77.07
2022-12-13T10:10:11.503Z,76.96
2022-12-13T10:15:53.647Z,76.58
2022-12-13T10:21:20.662Z,76.33
2022-12-13T10:26:44.668Z,75.97
2022-12-13T10:32:13.923Z,76.11
2022-12-13T10:37:38.734Z,75.47
2022-12-13T10:43:24.385Z,75.18
2022-12-13T10:49:05.694Z,74.91
2022-12-13T10:54:38.458Z,74.31
2022-12-13T11:00:40.565Z,73.86
2022-12-13T11:06:22.653Z,74.00
2022-12-13T11:12:06.411Z,73.90
2022-12-13T11:17:31.664Z,73.82
2022-12-13T11:23:12.781Z,73.15
2022-12-13T11:28:57.014Z,73.26
2022-12-13T11:34:24.339Z,73.20
2022-12-13T11:39:50.401Z,72.91
2022-12-13T11:45:37.260Z,73.15
2022-12-13T11:51:00.941Z,72.68
2022-12-13T11:56:44.926Z,72.59
2022-12-13T12:02:35.198Z,72.73
2022-12-13T12:08:37.178Z,72.08
2022-12-13T12:14:25.582Z,71.69
2022-12-13T12:20:07.678Z,71.92
2022-12-13T12:25:34.753Z,71.74
2022-12-13T12:31:34.400Z,71.25
2022-12-13T12:37:31.997Z,71.43
2022-12-13T12:43:39.660Z,71.41
2022-12-13T12:49:40.698Z,71.46
2022-12-13T12:55:22.677Z,71.27
2022-12-13T13:01:22.462Z,71.16
2022-12-13T13:07:22.509Z,70.49
2022-12-13T13:13:12.634Z,70.42
2022-12-13T13:19:25.463Z,70.75
2022-12-13T13:25:07.050Z,70.31
2022-12-13T13:30:31.068Z,70.38
2022-12-13T13:36:14.902Z,69.91
2022-12-13T13:42:17.176Z,69.72
2022-12-13T13:48:01.516Z,69.85
2022-12-13T13:53:44.622Z,69.67
2022-12-13T13:59:24.382Z,69.55
2022-12-13T14:04:54.938Z,70.22
2022-12-13T14:10:39.149Z,69.74
2022-12-13T14:16:12.208Z,69.91
2022-12-13T14:22:02.990Z,69.71
2022-12-13T14:28:02.907Z,69.91
2022-12-13T14:33:49.171Z,70.47
2022-12-13T14:39:31.475Z,70.88
2022-12-13T14:45:17.732Z,70.57
2022-12-13T14:50:59.669Z,70.90
2022-12-13T14:56:28.615Z,70.69
2022-12-13T15:01:57.032Z,70.82
2022-12-13T15:07:24.404Z,70.82
2022-12-13T15:12:49.078Z,71.04
2022-12-13T15:18:30.286Z,71.28
2022-12-13T15:24:30.655Z,71.20
2022-12-13T15:30:15.536Z,71.86
2022-12-13T15:35:39.156Z,72.13
2022-12-13T15:41:21.015Z,71.85
2022-12-13T15:47:09.855Z,71.72
2022-12-13T15:52:34.807Z,71.87
2022-12-13T15:58:35.592Z,71.90
2022-12-13T16:04:22.193Z,72.11
2022-12-13T16:10:03.394Z,71.88
2022-12-13T16:15:29.993Z,71.86
2022-12-13T16:20:56.826Z,71.85
2022-12-13T16:26:25.861Z,71.40
2022-12-13T16:31:50.279Z,71.78
2022-12-13T16:37:31.469Z,71.86
2022-12-13T16:43:19.720Z,71.69
2022-12-13T16:49:01.575Z,71.68
2022-12-13T16:54:26.177Z,71.88
2022-12-13T16:59:50.101Z,72.14
2022-12-13T17:05:14.179Z,71.92
2022-12-13T17:10:58.198Z,72.39
2022-12-13T17:16:39.711Z,71.93
2022-12-13T17:22:21.658Z,72.49
2022-12-13T17:27:46.735Z,72.55
2022-12-13T17:33:12.431Z,72.31
2022-12-13T17:38:36.570Z,72.07
2022-12-13T17:44:20.993Z,71.62
2022-12-13T17:49:45.022Z,72.05
2022-12-13T17:55:13.517Z,72.42
2022-12-13T18:01:00.113Z,72.06
2022-12-13T18:06:41.908Z,72.18
2022-12-13T18:12:23.337Z,72.11
2022-12-13T18:18:12.573Z,72.08
2022-12-13T18:23:37.362Z,72.11
2022-12-13T18:29:19.802Z,72.40
2022-12-13T18:35:01.733Z,72.18
2022-12-13T18:40:25.853Z,72.48
2022-12-13T18:45:49.470Z,72.26
2022-12-13T18:51:14.745Z,72.19
2022-12-13T18:56:55.819Z,72.37
2022-12-13T19:02:38.893Z,71.83
2022-12-13T19:08:26.542Z,71.92
2022-12-13T19:14:08.146Z,72.16
2022-12-13T19:19:32.133Z,71.80
2022-12-13T19:25:14.147Z,71.71
2022-12-13T19:30:37.793Z,71.42
2022-12-13T19:36:19.450Z,72.02
2022-12-13T19:41:43.982Z,71.87
2022-12-13T19:47:08.078Z,71.82
2022-12-13T19:52:32.579Z,71.90
2022-12-13T19:57:56.256Z,72.17
2022-12-13T20:03:38.363Z,71.93
2022-12-13T20:09:20.344Z,71.66
2022-12-13T20:14:44.457Z,71.07
2022-12-13T20:20:36.126Z,71.61
2022-12-13T20:26:28.507Z,71.60
2022-12-13T20:32:10.304Z,72.40
2022-12-13T20:37:33.583Z,72.73
2022-12-13T20:43:15.386Z,72.78
2022-12-13T20:48:41.140Z,72.44
2022-12-13T20:54:22.499Z,72.20
2022-12-13T21:00:04.539Z,72.55
2022-12-13T21:05:28.968Z,72.49
2022-12-13T21:10:53.499Z,72.35
2022-12-13T21:16:17.774Z,72.07
2022-12-13T21:22:00.391Z,71.79
2022-12-13T21:27:41.566Z,71.38
2022-12-13T21:33:23.307Z,71.41
2022-12-13T21:39:24.520Z,71.08
2022-12-13T21:45:06.036Z,71.12
2022-12-13T21:50:29.971Z,70.95
2022-12-13T21:56:14.667Z,70.90
2022-12-13T22:01:55.931Z,70.85
2022-12-13T22:07:38.489Z,70.67
2022-12-13T22:13:19.666Z,70.81
2022-12-13T22:18:43.583Z,70.30
2022-12-13T22:24:25.744Z,70.18
2022-12-13T22:30:08.348Z,69.75
2022-12-13T22:35:32.223Z,69.60
2022-12-13T22:40:56.080Z,69.91
2022-12-13T22:46:21.427Z,70.03
2022-12-13T22:52:02.881Z,70.05
2022-12-13T22:57:45.117Z,69.97
2022-12-13T23:03:30.366Z,70.04
2022-12-13T23:09:15.674Z,69.31
2022-12-13T23:14:39.716Z,69.97
2022-12-13T23:20:21.244Z,69.94
2022-12-13T23:25:44.651Z,69.44
2022-12-13T23:31:31.576Z,68.43
2022-12-13T23:37:13.945Z,68.67
2022-12-13T23:42:37.732Z,69.32
2022-12-13T23:48:23.724Z,69.84
2022-12-13T23:54:07.897Z,70.14
2022-12-13T23:59:31.485Z,70.06
